createdAt,value
2023-02-17T00:02:15.681Z,104.53
2023-02-17T00:04:42.272Z,99.55
2023-02-17T00:07:08.703Z,96.88
2023-02-17T00:09:36.906Z,92.65
2023-02-17T00:12:03.497Z,94.13
2023-02-17T00:14:29.887Z,97.30
2023-02-17T00:16:56.409Z,94.50
2023-02-17T00:19:25.932Z,93.95
2023-02-17T00:21:55.621Z,99.13
2023-02-17T00:24:23.970Z,96.65
2023-02-17T00:26:50.452Z,97.95
2023-02-17T00:29:17.449Z,95.45
2023-02-17T00:31:44.865Z,96.22
2023-02-17T00:34:11.733Z,95.40
2023-02-17T00:36:39.193Z,96.45
2023-02-17T00:39:06.907Z,96.72
2023-02-17T00:41:34.027Z,94.00
2023-02-17T00:44:00.783Z,103.05
2023-02-17T00:46:27.693Z,96.35
2023-02-17T00:48:54.618Z,100.88
2023-02-17T00:51:21.154Z,95.82
2023-02-17T00:53:47.640Z,92.20
2023-02-17T00:56:14.803Z,90.30
2023-02-17T00:58:41.801Z,91.45
2023-02-17T01:01:08.991Z,94.18
2023-02-17T01:03:35.467Z,101.05
2023-02-17T01:06:07.544Z,95.72
2023-02-17T01:08:34.267Z,88.22
2023-02-17T01:11:00.731Z,92.38
2023-02-17T01:13:27.441Z,95.78
2023-02-17T01:15:54.629Z,92.10
2023-02-17T01:18:23.840Z,88.65
2023-02-17T01:20:51.264Z,87.13
2023-02-17T01:23:17.909Z,87.95
2023-02-17T01:25:46.623Z,87.07
2023-02-17T01:28:17.475Z,93.40
2023-02-17T01:30:43.968Z,91.10
2023-02-17T01:33:10.768Z,84.82
2023-02-17T01:35:37.204Z,85.80
2023-02-17T01:38:03.645Z,83.18
2023-02-17T01:40:30.302Z,86.03
2023-02-17T01:42:56.818Z,83.43
2023-02-17T01:45:23.161Z,83.82
2023-02-17T01:48:11.879Z,81.07
2023-02-17T01:50:46.725Z,82.28
2023-02-17T01:53:16.610Z,88.40
2023-02-17T01:55:44.147Z,81.55
2023-02-17T01:58:15.918Z,80.75
2023-02-17T02:00:43.239Z,81.15
2023-02-17T02:03:14.121Z,79.55
2023-02-17T02:05:43.838Z,80.50
2023-02-17T02:08:12.091Z,80.32
2023-02-17T02:10:38.837Z,82.03
2023-02-17T02:13:05.762Z,82.13
2023-02-17T02:15:39.981Z,80.97
2023-02-17T02:18:26.595Z,77.32
2023-02-17T02:20:58.880Z,76.57
2023-02-17T02:23:56.209Z,79.60
2023-02-17T02:26:41.081Z,75.40
2023-02-17T02:29:19.717Z,73.93
2023-02-17T02:31:56.366Z,72.65
2023-02-17T02:35:05.857Z,74.28
2023-02-17T02:37:49.949Z,68.93
2023-02-17T02:40:20.113Z,71.55
2023-02-17T02:42:46.944Z,71.28
2023-02-17T02:45:13.553Z,72.25
2023-02-17T02:47:44.727Z,67.70
2023-02-17T02:50:26.966Z,70.15
2023-02-17T02:53:29.830Z,66.75
2023-02-17T02:56:17.849Z,69.25
2023-02-17T02:58:59.953Z,66.55
2023-02-17T03:01:34.013Z,65.72
2023-02-17T03:04:18.982Z,63.83
2023-02-17T03:06:55.826Z,64.00
2023-02-17T03:09:25.888Z,61.95
2023-02-17T03:11:54.788Z,62.53
2023-02-17T03:14:22.361Z,63.88
2023-02-17T03:16:49.988Z,62.38
2023-02-17T03:19:20.107Z,64.13
2023-02-17T03:21:49.256Z,64.40
2023-02-17T03:24:15.947Z,61.47
2023-02-17T03:26:42.476Z,60.55
2023-02-17T03:29:09.015Z,61.85
2023-02-17T03:31:36.060Z,58.90
2023-02-17T03:34:02.638Z,59.85
2023-02-17T03:36:29.967Z,60.17
2023-02-17T03:38:57.097Z,58.88
2023-02-17T03:41:24.060Z,60.95
2023-02-17T03:43:50.668Z,60.63
2023-02-17T03:46:17.829Z,61.50
2023-02-17T03:48:44.785Z,63.25
2023-02-17T03:51:16.639Z,61.65
2023-02-17T03:53:44.927Z,61.13
2023-02-17T03:56:13.130Z,63.50
2023-02-17T03:58:40.701Z,60.72
2023-02-17T04:01:08.725Z,61.20
2023-02-17T04:03:36.032Z,59.15
2023-02-17T04:06:03.121Z,57.33
2023-02-17T04:08:29.954Z,57.35
2023-02-17T04:10:59.523Z,55.50
2023-02-17T04:13:26.282Z,56.28
2023-02-17T04:15:53.265Z,58.38
2023-02-17T04:18:20.980Z,56.10
2023-02-17T04:20:51.702Z,59.03
2023-02-17T04:23:18.775Z,57.63
2023-02-17T04:25:46.264Z,54.75
2023-02-17T04:28:13.541Z,56.95
2023-02-17T04:30:42.292Z,54.83
2023-02-17T04:33:08.731Z,58.05
2023-02-17T04:35:35.182Z,55.78
2023-02-17T04:38:01.688Z,57.28
2023-02-17T04:40:28.123Z,55.97
2023-02-17T04:42:54.521Z,56.08
2023-02-17T04:45:22.312Z,58.17
2023-02-17T04:47:49.173Z,57.45
2023-02-17T04:50:15.715Z,58.55
2023-02-17T04:52:42.236Z,58.95
2023-02-17T04:55:09.112Z,59.33
2023-02-17T04:57:35.591Z,58.95
2023-02-17T05:00:04.005Z,57.78
2023-02-17T05:02:31.451Z,58.80
2023-02-17T05:04:57.915Z,58.00
2023-02-17T05:07:24.636Z,60.25
2023-02-17T05:09:51.025Z,59.75
2023-02-17T05:12:17.454Z,60.17
2023-02-17T05:14:43.968Z,59.35
2023-02-17T05:17:10.595Z,62.17
2023-02-17T05:19:37.034Z,59.58
2023-02-17T05:22:03.665Z,60.97
2023-02-17T05:24:30.172Z,62.95
2023-02-17T05:26:56.570Z,59.95
2023-02-17T05:29:24.124Z,61.40
2023-02-17T05:31:50.668Z,65.40
2023-02-17T05:34:17.135Z,63.97
2023-02-17T05:36:43.663Z,63.60
2023-02-17T05:39:10.137Z,61.88
2023-02-17T05:41:36.580Z,64.20
2023-02-17T05:44:03.059Z,64.03
2023-02-17T05:46:29.541Z,65.10
2023-02-17T05:48:55.969Z,64.85
2023-02-17T05:51:22.498Z,65.13
2023-02-17T05:53:49.011Z,65.00
2023-02-17T05:56:15.437Z,63.42
2023-02-17T05:58:41.809Z,63.70
2023-02-17T06:01:10.303Z,66.30
2023-02-17T06:03:37.607Z,65.90
2023-02-17T06:06:05.643Z,66.45
2023-02-17T06:08:32.315Z,67.90
2023-02-17T06:10:58.895Z,69.25
2023-02-17T06:13:25.468Z,67.70
2023-02-17T06:15:51.923Z,66.13
2023-02-17T06:18:19.728Z,68.07
2023-02-17T06:20:46.310Z,67.38
2023-02-17T06:23:12.756Z,68.68
2023-02-17T06:25:39.177Z,68.03
2023-02-17T06:28:05.720Z,71.43
2023-02-17T06:30:32.253Z,69.53
2023-02-17T06:32:59.238Z,71.50
2023-02-17T06:35:26.454Z,71.65
2023-02-17T06:37:53.337Z,71.75
2023-02-17T06:40:20.158Z,71.00
2023-02-17T06:42:46.643Z,74.82
2023-02-17T06:45:13.336Z,77.13
2023-02-17T06:47:39.781Z,75.95
2023-02-17T06:50:07.124Z,76.55
2023-02-17T06:52:33.780Z,77.30
2023-02-17T06:55:00.231Z,77.90
2023-02-17T06:57:26.911Z,77.40
2023-02-17T06:59:53.453Z,78.07
2023-02-17T07:02:20.609Z,77.20
2023-02-17T07:04:47.158Z,76.32
2023-02-17T07:07:13.565Z,75.45
2023-02-17T07:09:40.556Z,78.35
2023-02-17T07:12:07.429Z,75.90
2023-02-17T07:14:34.755Z,74.25
2023-02-17T07:17:01.362Z,74.55
2023-02-17T07:19:27.964Z,75.05
2023-02-17T07:21:54.607Z,72.28
2023-02-17T07:24:21.243Z,75.55
2023-02-17T07:26:48.532Z,73.13
2023-02-17T07:29:15.036Z,77.10
2023-02-17T07:31:41.524Z,76.15
2023-02-17T07:34:08.062Z,72.45
2023-02-17T07:36:34.843Z,74.72
2023-02-17T07:39:02.434Z,74.70
2023-02-17T07:41:30.578Z,74.15
2023-02-17T07:43:57.661Z,73.47
2023-02-17T07:46:24.742Z,75.53
2023-02-17T07:48:51.156Z,73.60
2023-02-17T07:51:21.084Z,70.93
2023-02-17T07:53:48.663Z,70.05
2023-02-17T07:56:16.905Z,67.82
2023-02-17T07:58:44.826Z,68.47
2023-02-17T08:01:12.771Z,65.63
2023-02-17T08:03:40.143Z,66.97
2023-02-17T08:06:10.925Z,64.00
2023-02-17T08:08:56.149Z,67.00
2023-02-17T08:11:49.805Z,65.18
2023-02-17T08:14:16.683Z,64.38
2023-02-17T08:16:43.367Z,59.25
2023-02-17T08:19:09.848Z,62.33
2023-02-17T08:21:36.348Z,62.70
2023-02-17T08:24:02.963Z,62.78
2023-02-17T08:26:29.729Z,66.43
2023-02-17T08:28:56.800Z,65.68
2023-02-17T08:31:29.999Z,61.60
2023-02-17T08:33:57.440Z,57.55
2023-02-17T08:36:24.896Z,56.53
2023-02-17T08:38:52.682Z,56.60
2023-02-17T08:41:23.594Z,55.03
2023-02-17T08:43:50.970Z,56.67
2023-02-17T08:46:19.735Z,57.88
2023-02-17T08:48:47.471Z,58.25
2023-02-17T08:51:25.776Z,57.40
2023-02-17T08:53:55.102Z,56.95
2023-02-17T08:56:23.252Z,55.23
2023-02-17T08:58:50.255Z,57.65
2023-02-17T09:01:18.953Z,55.35
2023-02-17T09:03:47.250Z,54.17
2023-02-17T09:06:15.661Z,51.72
2023-02-17T09:08:43.865Z,50.38
2023-02-17T09:11:15.328Z,53.13
2023-02-17T09:13:41.790Z,55.53
2023-02-17T09:16:08.653Z,52.78
2023-02-17T09:18:35.411Z,51.40
2023-02-17T09:21:12.006Z,53.63
2023-02-17T09:23:39.752Z,53.25
2023-02-17T09:26:11.894Z,58.10
2023-02-17T09:28:39.172Z,54.75
2023-02-17T09:31:24.132Z,57.50
2023-02-17T09:33:51.617Z,57.17
2023-02-17T09:36:30.918Z,59.85
2023-02-17T09:38:57.728Z,57.90
2023-02-17T09:41:32.365Z,57.75
2023-02-17T09:43:59.600Z,58.13
2023-02-17T09:46:44.838Z,58.45
2023-02-17T09:49:22.706Z,58.00
2023-02-17T09:54:41.520Z,57.80
2023-02-17T09:57:14.321Z,55.75
2023-02-17T09:59:46.637Z,57.60
2023-02-17T10:02:41.462Z,60.03
2023-02-17T10:05:11.393Z,57.42
2023-02-17T10:07:51.200Z,58.15
2023-02-17T10:10:25.987Z,60.28
2023-02-17T10:13:00.099Z,59.15
2023-02-17T10:15:31.959Z,59.80
2023-02-17T10:18:26.457Z,58.17
2023-02-17T10:21:02.320Z,60.45
2023-02-17T10:23:29.712Z,60.85
2023-02-17T10:26:14.555Z,65.90
2023-02-17T10:28:50.422Z,63.10
2023-02-17T10:31:33.044Z,67.78
2023-02-17T10:34:08.733Z,65.60
2023-02-17T10:37:01.384Z,63.80
2023-02-17T10:39:44.728Z,61.85
2023-02-17T10:42:21.978Z,63.53
2023-02-17T10:44:50.996Z,59.45
2023-02-17T10:47:19.092Z,63.25
2023-02-17T10:49:49.607Z,57.30
2023-02-17T10:52:19.395Z,59.00
2023-02-17T10:55:00.517Z,57.90
2023-02-17T10:57:35.448Z,57.92
2023-02-17T11:00:02.193Z,59.13
2023-02-17T11:02:44.682Z,56.05
2023-02-17T11:05:41.510Z,54.83
2023-02-17T11:08:40.138Z,51.92
2023-02-17T11:11:24.598Z,54.42
2023-02-17T11:14:06.392Z,52.70
2023-02-17T11:16:37.588Z,55.00
2023-02-17T11:19:06.656Z,57.30
2023-02-17T11:21:33.643Z,54.92
2023-02-17T11:24:05.973Z,57.45
2023-02-17T11:26:35.190Z,53.97
2023-02-17T11:29:16.101Z,53.20
2023-02-17T11:31:42.695Z,54.97
2023-02-17T11:34:15.106Z,57.67
2023-02-17T11:36:45.679Z,54.47
2023-02-17T11:39:22.088Z,54.42
2023-02-17T11:41:48.992Z,53.88
2023-02-17T11:44:28.387Z,54.72
2023-02-17T11:47:13.444Z,53.47
2023-02-17T11:50:26.120Z,55.25
2023-02-17T11:53:39.013Z,55.67
2023-02-17T11:56:20.767Z,53.42
2023-02-17T11:59:24.624Z,54.50
2023-02-17T12:02:06.254Z,54.97
2023-02-17T12:04:38.204Z,54.17
2023-02-17T12:07:31.785Z,54.08
2023-02-17T12:10:30.541Z,52.60
2023-02-17T12:13:23.211Z,55.13
2023-02-17T12:15:59.846Z,54.97
2023-02-17T12:18:41.161Z,53.92
2023-02-17T12:21:07.476Z,52.80
2023-02-17T12:24:05.450Z,53.08
2023-02-17T12:26:42.104Z,50.33
2023-02-17T12:29:29.569Z,50.10
2023-02-17T12:32:10.319Z,51.72
2023-02-17T12:34:44.154Z,48.20
2023-02-17T12:37:26.023Z,49.20
2023-02-17T12:39:59.489Z,47.83
2023-02-17T12:42:51.738Z,48.40
2023-02-17T12:45:22.062Z,47.40
2023-02-17T12:48:01.516Z,46.13
2023-02-17T12:50:35.373Z,45.47
2023-02-17T12:53:05.747Z,45.00
2023-02-17T12:55:48.315Z,45.22
2023-02-17T12:58:25.901Z,42.53
2023-02-17T13:01:06.876Z,43.88
2023-02-17T13:03:35.801Z,41.95
2023-02-17T13:06:30.275Z,43.22
2023-02-17T13:09:02.778Z,41.90
2023-02-17T13:11:32.468Z,41.55
2023-02-17T13:14:29.796Z,42.33
2023-02-17T13:16:56.645Z,41.17
2023-02-17T13:19:32.679Z,40.85
2023-02-17T13:22:02.261Z,42.25
2023-02-17T13:24:34.796Z,40.97
2023-02-17T13:27:32.858Z,40.80
2023-02-17T13:30:05.408Z,42.42
2023-02-17T13:32:34.495Z,43.22
2023-02-17T13:35:07.301Z,42.55
2023-02-17T13:37:33.689Z,41.85
2023-02-17T13:40:02.095Z,42.08
2023-02-17T13:42:40.208Z,41.28
2023-02-17T13:45:34.840Z,41.35
2023-02-17T13:48:20.340Z,40.58
2023-02-17T13:50:53.172Z,40.95
2023-02-17T13:53:40.954Z,41.65
2023-02-17T13:56:12.261Z,40.00
2023-02-17T13:58:41.189Z,39.75
2023-02-17T14:01:14.555Z,37.78
2023-02-17T14:03:40.911Z,38.40
2023-02-17T14:06:18.607Z,38.50
2023-02-17T14:08:45.053Z,38.38
2023-02-17T14:11:19.395Z,36.03
2023-02-17T14:13:48.873Z,35.97
2023-02-17T14:16:34.096Z,34.88
2023-02-17T14:19:20.824Z,34.60
2023-02-17T14:21:56.566Z,33.58
2023-02-17T14:24:35.603Z,32.85
2023-02-17T14:27:06.921Z,32.55
2023-02-17T14:29:40.222Z,27.77
2023-02-17T14:32:07.762Z,24.42
2023-02-17T14:34:36.213Z,22.02
2023-02-17T14:37:09.724Z,19.50
2023-02-17T14:39:36.656Z,18.13
2023-02-17T14:42:03.237Z,17.35
2023-02-17T14:44:29.696Z,15.73
2023-02-17T14:46:56.096Z,14.20
2023-02-17T14:49:22.531Z,13.98
2023-02-17T14:51:49.063Z,13.50
2023-02-17T14:54:17.300Z,13.85
2023-02-17T14:56:49.451Z,14.57
2023-02-17T14:59:15.999Z,15.57
2023-02-17T15:01:42.516Z,13.95
2023-02-17T15:04:08.944Z,14.30
2023-02-17T15:06:43.381Z,14.18
2023-02-17T15:09:13.266Z,15.30
2023-02-17T15:11:41.537Z,17.58
2023-02-17T15:14:14.612Z,14.95
2023-02-17T15:16:41.001Z,15.52
2023-02-17T15:19:09.234Z,15.73
2023-02-17T15:21:38.008Z,14.88
2023-02-17T15:24:14.095Z,15.35
2023-02-17T15:26:40.582Z,14.02
2023-02-17T15:29:15.322Z,14.95
2023-02-17T15:31:41.907Z,15.18
2023-02-17T15:34:20.264Z,14.35
2023-02-17T15:36:47.329Z,14.13
2023-02-17T15:39:16.995Z,14.75
2023-02-17T15:41:44.938Z,14.63
2023-02-17T15:44:26.169Z,14.75
2023-02-17T15:46:54.654Z,14.77
2023-02-17T15:49:21.731Z,15.32
2023-02-17T15:51:48.357Z,16.60
2023-02-17T15:54:19.026Z,15.52
2023-02-17T15:56:49.108Z,15.32
2023-02-17T15:59:24.537Z,14.48
2023-02-17T16:01:51.250Z,15.25
2023-02-17T16:04:17.906Z,13.60
2023-02-17T16:06:44.459Z,13.95
2023-02-17T16:09:11.250Z,15.52
2023-02-17T16:11:47.566Z,14.52
2023-02-17T16:14:24.016Z,14.80
2023-02-17T16:16:51.032Z,14.07
2023-02-17T16:19:17.450Z,15.05
2023-02-17T16:21:43.912Z,13.45
2023-02-17T16:24:10.323Z,13.80
2023-02-17T16:26:38.264Z,15.05
2023-02-17T16:29:13.917Z,15.73
2023-02-17T16:31:40.480Z,14.50
2023-02-17T16:34:06.983Z,15.80
2023-02-17T16:36:35.758Z,12.88
2023-02-17T16:39:10.313Z,14.60
2023-02-17T16:41:36.762Z,17.17
2023-02-17T16:44:03.209Z,15.77
2023-02-17T16:46:33.130Z,14.65
2023-02-17T16:49:02.573Z,14.07
2023-02-17T16:51:29.293Z,16.27
2023-02-17T16:53:56.270Z,17.52
2023-02-17T16:56:29.802Z,15.13
2023-02-17T16:58:56.236Z,16.15
2023-02-17T17:01:24.251Z,16.35
2023-02-17T17:03:50.904Z,18.08
2023-02-17T17:06:27.516Z,17.35
2023-02-17T17:08:54.587Z,16.45
2023-02-17T17:11:24.773Z,15.93
2023-02-17T17:16:34.695Z,14.55
2023-02-17T17:19:02.057Z,15.45
2023-02-17T17:21:28.945Z,13.02
2023-02-17T17:23:55.615Z,13.70
2023-02-17T17:26:31.881Z,13.55
2023-02-17T17:28:58.724Z,20.13
2023-02-17T17:31:25.979Z,30.45
2023-02-17T17:33:53.450Z,16.55
2023-02-17T17:36:26.740Z,15.18
2023-02-17T17:38:54.512Z,16.23
2023-02-17T17:41:22.571Z,14.75
2023-02-17T17:43:49.767Z,13.70
2023-02-17T17:46:18.603Z,12.88
2023-02-17T17:48:45.260Z,13.40
2023-02-17T17:51:17.982Z,13.82
2023-02-17T17:53:44.881Z,14.27
2023-02-17T17:56:33.572Z,14.25
2023-02-17T17:59:01.935Z,12.88
2023-02-17T18:01:28.444Z,15.48
2023-02-17T18:03:57.225Z,14.07
2023-02-17T18:06:40.712Z,14.27
2023-02-17T18:09:13.295Z,14.50
2023-02-17T18:11:44.531Z,14.55
2023-02-17T18:14:13.993Z,13.63
2023-02-17T18:16:42.569Z,14.13
2023-02-17T18:19:09.043Z,15.70
2023-02-17T18:21:35.876Z,13.93
2023-02-17T18:24:03.540Z,14.32
2023-02-17T18:26:30.415Z,15.80
2023-02-17T18:28:57.509Z,13.57
2023-02-17T18:31:29.495Z,12.85
2023-02-17T18:33:56.506Z,13.65
2023-02-17T18:36:26.098Z,14.15
2023-02-17T18:38:54.503Z,14.65
2023-02-17T18:41:24.492Z,14.65
2023-02-17T18:43:51.185Z,13.77
2023-02-17T18:46:18.242Z,14.77
2023-02-17T18:48:45.042Z,13.82
2023-02-17T18:51:14.481Z,13.45
2023-02-17T18:53:41.834Z,13.73
2023-02-17T18:56:13.280Z,14.65
2023-02-17T18:58:40.311Z,15.18
2023-02-17T19:01:07.335Z,15.80
2023-02-17T19:03:33.725Z,12.65
2023-02-17T19:06:08.965Z,15.07
2023-02-17T19:08:35.502Z,16.30
2023-02-17T19:11:02.913Z,14.93
2023-02-17T19:13:29.428Z,15.75
2023-02-17T19:16:04.719Z,15.50
2023-02-17T19:18:31.308Z,14.90
2023-02-17T19:20:59.727Z,14.52
2023-02-17T19:23:26.346Z,14.18
2023-02-17T19:25:52.904Z,14.63
2023-02-17T19:28:19.290Z,15.98
2023-02-17T19:30:45.765Z,14.68
2023-02-17T19:33:12.268Z,14.70
2023-02-17T19:35:42.820Z,14.27
2023-02-17T19:38:09.256Z,15.98
2023-02-17T19:40:36.417Z,15.88
2023-02-17T19:43:03.147Z,15.05
2023-02-17T19:45:29.934Z,15.90
2023-02-17T19:47:56.379Z,14.73
2023-02-17T19:50:22.914Z,14.38
2023-02-17T19:52:49.523Z,14.38
2023-02-17T19:55:16.009Z,14.77
2023-02-17T19:57:42.539Z,13.15
2023-02-17T20:00:10.105Z,13.55
2023-02-17T20:02:36.971Z,13.10
2023-02-17T20:05:03.648Z,14.65
2023-02-17T20:07:31.628Z,14.90
2023-02-17T20:09:58.103Z,13.98
2023-02-17T20:12:24.582Z,13.40
2023-02-17T20:14:53.150Z,12.93
2023-02-17T20:17:19.589Z,12.32
2023-02-17T20:19:46.003Z,12.52
2023-02-17T20:22:12.537Z,13.73
2023-02-17T20:24:40.730Z,13.02
2023-02-17T20:27:07.627Z,13.30
2023-02-17T20:29:36.200Z,14.43
2023-02-17T20:32:03.332Z,14.18
2023-02-17T20:34:35.867Z,13.60
2023-02-17T20:37:02.640Z,13.20
2023-02-17T20:39:29.304Z,14.02
2023-02-17T20:41:56.400Z,14.70
2023-02-17T20:44:27.728Z,13.63
2023-02-17T20:46:55.213Z,13.57
2023-02-17T20:49:22.140Z,14.48
2023-02-17T20:51:48.945Z,14.05
2023-02-17T20:54:15.660Z,13.18
2023-02-17T20:56:44.646Z,13.80
2023-02-17T20:59:13.050Z,14.32
2023-02-17T21:01:41.154Z,12.93
2023-02-17T21:04:08.352Z,13.88
2023-02-17T21:06:41.278Z,12.50
2023-02-17T21:09:16.895Z,13.57
2023-02-17T21:11:44.046Z,13.80
2023-02-17T21:14:10.850Z,14.35
2023-02-17T21:16:37.913Z,13.85
2023-02-17T21:19:04.728Z,14.02
2023-02-17T21:21:31.592Z,14.32
2023-02-17T21:23:59.140Z,15.20
2023-02-17T21:26:26.422Z,14.60
2023-02-17T21:28:54.215Z,15.18
2023-02-17T21:31:20.898Z,13.43
2023-02-17T21:33:47.463Z,13.75
2023-02-17T21:36:16.844Z,13.73
2023-02-17T21:38:43.340Z,14.23
2023-02-17T21:41:14.070Z,14.65
2023-02-17T21:43:59.870Z,14.52
2023-02-17T21:46:27.320Z,13.95
2023-02-17T21:48:55.523Z,13.35
2023-02-17T21:51:21.932Z,14.35
2023-02-17T21:53:48.709Z,14.30
2023-02-17T21:56:15.921Z,14.30
2023-02-17T21:58:50.090Z,14.95
2023-02-17T22:01:17.073Z,15.35
2023-02-17T22:03:43.600Z,13.95
2023-02-17T22:06:18.129Z,12.75
2023-02-17T22:08:45.522Z,14.40
2023-02-17T22:11:27.165Z,13.27
2023-02-17T22:13:59.270Z,13.98
2023-02-17T22:16:26.307Z,16.05
2023-02-17T22:18:53.011Z,14.70
2023-02-17T22:21:19.462Z,14.38
2023-02-17T22:23:46.076Z,15.10
2023-02-17T22:26:22.648Z,15.35
2023-02-17T22:28:50.399Z,13.90
2023-02-17T22:31:19.530Z,14.20
2023-02-17T22:33:46.524Z,15.25
2023-02-17T22:36:16.272Z,13.38
2023-02-17T22:38:43.083Z,14.88
2023-02-17T22:41:12.257Z,14.45
2023-02-17T22:43:40.584Z,13.40
2023-02-17T22:46:09.257Z,13.70
2023-02-17T22:48:37.760Z,15.00
2023-02-17T22:51:09.232Z,14.50
2023-02-17T22:53:36.627Z,14.93
2023-02-17T22:56:04.951Z,13.70
2023-02-17T22:58:32.354Z,13.43
2023-02-17T23:01:13.245Z,13.52
2023-02-17T23:03:40.476Z,12.45
2023-02-17T23:06:11.533Z,15.55
2023-02-17T23:08:38.172Z,14.13
2023-02-17T23:11:10.040Z,13.68
2023-02-17T23:13:36.999Z,12.57
2023-02-17T23:16:04.221Z,13.70
2023-02-17T23:18:32.000Z,13.48
2023-02-17T23:20:59.701Z,13.88
2023-02-17T23:23:26.594Z,13.55
2023-02-17T23:25:55.164Z,12.95
2023-02-17T23:28:24.603Z,13.13
2023-02-17T23:30:52.204Z,12.25
2023-02-17T23:33:20.853Z,12.43
2023-02-17T23:35:47.686Z,13.40
2023-02-17T23:38:17.664Z,12.70
2023-02-17T23:40:51.251Z,13.20
2023-02-17T23:43:18.873Z,12.43
2023-02-17T23:45:45.562Z,13.45
2023-02-17T23:48:12.339Z,13.45
2023-02-17T23:50:38.993Z,13.60
2023-02-17T23:53:05.974Z,13.57
2023-02-17T23:55:32.487Z,12.07
2023-02-17T23:58:00.639Z,13.05
